sensor_id;sensor_type;location;lat;lon;timestamp;pressure;altitude;pressure_sealevel;temperature;humidity
38616;BME280;24370;51.986;4.666;2023-02-13T00:00:31;103849.25;;;16.39;41.33
38616;BME280;24370;51.986;4.666;2023-02-13T00:02:56;103848.19;;;16.24;41.85
38616;BME280;24370;51.986;4.666;2023-02-13T00:05:22;103844.47;;;15.56;42.89
38616;BME280;24370;51.986;4.666;2023-02-13T00:07:47;103840.75;;;15.43;43.09
38616;BME280;24370;51.986;4.666;2023-02-13T00:10:12;103839.22;;;16.11;42.11
38616;BME280;24370;51.986;4.666;2023-02-13T00:12:38;103851.28;;;15.43;43.06
38616;BME280;24370;51.986;4.666;2023-02-13T00:15:04;103842.16;;;15.76;42.77
38616;BME280;24370;51.986;4.666;2023-02-13T00:17:31;103833.75;;;15.46;42.90
38616;BME280;24370;51.986;4.666;2023-02-13T00:19:56;103839.94;;;15.48;43.12
38616;BME280;24370;51.986;4.666;2023-02-13T00:22:22;103832.53;;;15.25;43.59
38616;BME280;24370;51.986;4.666;2023-02-13T00:24:48;103830.13;;;15.91;42.18
38616;BME280;24370;51.986;4.666;2023-02-13T00:27:13;103834.47;;;15.89;42.52
38616;BME280;24370;51.986;4.666;2023-02-13T00:29:39;103836.22;;;15.87;42.38
38616;BME280;24370;51.986;4.666;2023-02-13T00:32:04;103832.88;;;15.47;43.11
38616;BME280;24370;51.986;4.666;2023-02-13T00:34:30;103832.03;;;16.01;42.51
38616;BME280;24370;51.986;4.666;2023-02-13T00:36:55;103835.19;;;15.26;43.34
38616;BME280;24370;51.986;4.666;2023-02-13T00:39:20;103826.72;;;15.98;42.79
38616;BME280;24370;51.986;4.666;2023-02-13T00:41:46;103830.97;;;15.88;42.60
38616;BME280;24370;51.986;4.666;2023-02-13T00:44:11;103829.72;;;15.66;42.88
38616;BME280;24370;51.986;4.666;2023-02-13T00:46:36;103823.22;;;15.99;42.08
38616;BME280;24370;51.986;4.666;2023-02-13T00:49:03;103832.81;;;15.94;42.31
38616;BME280;24370;51.986;4.666;2023-02-13T00:51:29;103811.50;;;15.28;43.75
38616;BME280;24370;51.986;4.666;2023-02-13T00:53:54;103822.19;;;15.37;43.44
38616;BME280;24370;51.986;4.666;2023-02-13T00:56:20;103828.75;;;15.61;43.56
38616;BME280;24370;51.986;4.666;2023-02-13T00:58:45;103823.47;;;15.61;43.28
38616;BME280;24370;51.986;4.666;2023-02-13T01:01:10;103818.41;;;15.23;43.62
38616;BME280;24370;51.986;4.666;2023-02-13T01:03:36;103816.59;;;15.19;44.16
38616;BME280;24370;51.986;4.666;2023-02-13T01:06:02;103815.44;;;15.55;43.34
38616;BME280;24370;51.986;4.666;2023-02-13T01:08:27;103818.19;;;15.61;42.80
38616;BME280;24370;51.986;4.666;2023-02-13T01:10:53;103809.03;;;15.37;43.65
38616;BME280;24370;51.986;4.666;2023-02-13T01:13:19;103816.53;;;15.68;43.20
38616;BME280;24370;51.986;4.666;2023-02-13T01:15:46;103809.75;;;15.30;43.67
38616;BME280;24370;51.986;4.666;2023-02-13T01:18:13;103814.00;;;15.75;42.89
38616;BME280;24370;51.986;4.666;2023-02-13T01:20:40;103806.91;;;15.71;43.05
38616;BME280;24370;51.986;4.666;2023-02-13T01:23:06;103806.09;;;15.75;42.89
38616;BME280;24370;51.986;4.666;2023-02-13T01:25:31;103804.25;;;15.70;42.89
38616;BME280;24370;51.986;4.666;2023-02-13T01:27:57;103807.91;;;16.36;41.44
38616;BME280;24370;51.986;4.666;2023-02-13T01:30:22;103808.88;;;15.82;42.53
38616;BME280;24370;51.986;4.666;2023-02-13T01:32:48;103800.97;;;16.44;41.77
38616;BME280;24370;51.986;4.666;2023-02-13T01:35:14;103795.97;;;15.47;42.90
38616;BME280;24370;51.986;4.666;2023-02-13T01:37:40;103792.59;;;15.54;43.17
38616;BME280;24370;51.986;4.666;2023-02-13T01:40:07;103805.38;;;15.83;43.08
38616;BME280;24370;51.986;4.666;2023-02-13T01:42:34;103798.50;;;15.94;42.48
38616;BME280;24370;51.986;4.666;2023-02-13T01:45:32;103794.50;;;15.63;43.39
38616;BME280;24370;51.986;4.666;2023-02-13T01:48:06;103803.47;;;15.75;43.26
38616;BME280;24370;51.986;4.666;2023-02-13T01:50:49;103803.94;;;16.03;41.92
38616;BME280;24370;51.986;4.666;2023-02-13T01:53:25;103794.19;;;15.99;42.82
38616;BME280;24370;51.986;4.666;2023-02-13T01:55:54;103799.66;;;16.11;42.38
38616;BME280;24370;51.986;4.666;2023-02-13T01:58:24;103793.41;;;16.06;42.34
38616;BME280;24370;51.986;4.666;2023-02-13T02:00:50;103801.19;;;15.43;43.34
38616;BME280;24370;51.986;4.666;2023-02-13T02:03:24;103795.56;;;15.22;43.94
38616;BME280;24370;51.986;4.666;2023-02-13T02:05:54;103795.88;;;15.40;43.62
38616;BME280;24370;51.986;4.666;2023-02-13T02:08:21;103799.59;;;15.52;43.52
38616;BME280;24370;51.986;4.666;2023-02-13T02:10:47;103800.94;;;15.80;42.96
38616;BME280;24370;51.986;4.666;2023-02-13T02:13:18;103798.94;;;15.67;43.04
38616;BME280;24370;51.986;4.666;2023-02-13T02:15:45;103803.47;;;15.75;43.06
38616;BME280;24370;51.986;4.666;2023-02-13T02:18:20;103796.75;;;15.41;44.27
38616;BME280;24370;51.986;4.666;2023-02-13T02:24:03;103796.59;;;15.84;43.25
38616;BME280;24370;51.986;4.666;2023-02-13T02:32:36;103786.75;;;15.20;44.60
38616;BME280;24370;51.986;4.666;2023-02-13T02:41:18;103782.19;;;15.63;43.65
38616;BME280;24370;51.986;4.666;2023-02-13T02:43:34;103780.63;;;15.21;43.87
38616;BME280;24370;51.986;4.666;2023-02-13T02:49:14;103785.38;;;15.97;42.80
38616;BME280;24370;51.986;4.666;2023-02-13T02:52:09;103774.03;;;16.04;42.41
38616;BME280;24370;51.986;4.666;2023-02-13T02:57:44;103773.56;;;15.73;43.28
38616;BME280;24370;51.986;4.666;2023-02-13T03:00:41;103773.75;;;15.83;43.07
38616;BME280;24370;51.986;4.666;2023-02-13T03:03:26;103775.84;;;16.08;42.57
38616;BME280;24370;51.986;4.666;2023-02-13T03:06:17;103772.81;;;15.81;42.89
38616;BME280;24370;51.986;4.666;2023-02-13T03:08:52;103779.47;;;15.58;43.52
38616;BME280;24370;51.986;4.666;2023-02-13T03:11:37;103781.31;;;15.63;43.34
38616;BME280;24370;51.986;4.666;2023-02-13T03:14:24;103774.03;;;16.04;42.47
38616;BME280;24370;51.986;4.666;2023-02-13T03:16:51;103773.19;;;16.08;42.40
38616;BME280;24370;51.986;4.666;2023-02-13T03:20:02;103774.41;;;15.71;43.14
38616;BME280;24370;51.986;4.666;2023-02-13T03:23:13;103774.88;;;15.47;43.41
38616;BME280;24370;51.986;4.666;2023-02-13T03:29:10;103762.81;;;15.07;44.46
38616;BME280;24370;51.986;4.666;2023-02-13T03:34:35;103766.97;;;15.47;43.50
38616;BME280;24370;51.986;4.666;2023-02-13T03:37:34;103769.88;;;15.62;43.58
38616;BME280;24370;51.986;4.666;2023-02-13T03:40:28;103765.84;;;15.29;43.76
38616;BME280;24370;51.986;4.666;2023-02-13T03:43:13;103764.94;;;15.29;43.76
38616;BME280;24370;51.986;4.666;2023-02-13T03:45:43;103768.41;;;14.75;45.13
38616;BME280;24370;51.986;4.666;2023-02-13T03:48:23;103762.03;;;15.12;44.44
38616;BME280;24370;51.986;4.666;2023-02-13T03:51:14;103751.28;;;14.99;44.04
38616;BME280;24370;51.986;4.666;2023-02-13T03:53:42;103754.97;;;15.10;44.57
38616;BME280;24370;51.986;4.666;2023-02-13T03:56:12;103755.38;;;15.35;44.37
38616;BME280;24370;51.986;4.666;2023-02-13T03:59:00;103758.34;;;15.55;43.59
38616;BME280;24370;51.986;4.666;2023-02-13T04:01:53;103753.50;;;14.78;45.27
38616;BME280;24370;51.986;4.666;2023-02-13T04:07:10;103743.53;;;15.62;43.85
38616;BME280;24370;51.986;4.666;2023-02-13T04:10:04;103746.59;;;15.33;44.36
38616;BME280;24370;51.986;4.666;2023-02-13T04:12:41;103744.47;;;15.14;44.88
38616;BME280;24370;51.986;4.666;2023-02-13T04:15:12;103743.66;;;14.67;45.69
38616;BME280;24370;51.986;4.666;2023-02-13T04:17:44;103751.72;;;14.76;45.85
38616;BME280;24370;51.986;4.666;2023-02-13T04:20:11;103746.41;;;15.22;44.55
38616;BME280;24370;51.986;4.666;2023-02-13T04:22:47;103746.00;;;14.99;45.40
38616;BME280;24370;51.986;4.666;2023-02-13T04:25:15;103751.47;;;15.12;44.67
38616;BME280;24370;51.986;4.666;2023-02-13T04:27:41;103744.88;;;15.38;44.72
38616;BME280;24370;51.986;4.666;2023-02-13T04:30:07;103748.38;;;15.92;43.38
38616;BME280;24370;51.986;4.666;2023-02-13T04:32:33;103744.94;;;15.98;43.19
38616;BME280;24370;51.986;4.666;2023-02-13T04:34:58;103745.28;;;15.63;43.78
38616;BME280;24370;51.986;4.666;2023-02-13T04:37:24;103749.34;;;15.99;43.18
38616;BME280;24370;51.986;4.666;2023-02-13T04:39:49;103755.41;;;15.93;43.29
38616;BME280;24370;51.986;4.666;2023-02-13T04:42:15;103748.66;;;15.53;44.22
38616;BME280;24370;51.986;4.666;2023-02-13T04:44:40;103748.91;;;15.16;44.73
38616;BME280;24370;51.986;4.666;2023-02-13T04:47:05;103751.47;;;15.12;45.18
38616;BME280;24370;51.986;4.666;2023-02-13T04:49:31;103751.00;;;15.36;44.85
38616;BME280;24370;51.986;4.666;2023-02-13T04:51:56;103746.69;;;14.89;45.95
38616;BME280;24370;51.986;4.666;2023-02-13T04:54:21;103746.91;;;15.55;44.01
38616;BME280;24370;51.986;4.666;2023-02-13T04:56:47;103746.75;;;16.02;43.49
38616;BME280;24370;51.986;4.666;2023-02-13T04:59:12;103747.19;;;15.17;45.27
38616;BME280;24370;51.986;4.666;2023-02-13T05:01:38;103739.97;;;15.60;44.62
38616;BME280;24370;51.986;4.666;2023-02-13T05:04:03;103741.03;;;15.18;45.13
38616;BME280;24370;51.986;4.666;2023-02-13T05:06:28;103745.66;;;15.88;43.87
38616;BME280;24370;51.986;4.666;2023-02-13T05:08:54;103731.22;;;15.64;44.41
38616;BME280;24370;51.986;4.666;2023-02-13T05:11:19;103736.22;;;14.92;46.69
38616;BME280;24370;51.986;4.666;2023-02-13T05:13:44;103735.50;;;15.02;45.51
38616;BME280;24370;51.986;4.666;2023-02-13T05:16:10;103729.34;;;15.54;44.67
38616;BME280;24370;51.986;4.666;2023-02-13T05:18:35;103724.91;;;15.53;44.80
38616;BME280;24370;51.986;4.666;2023-02-13T05:21:00;103722.09;;;14.88;45.92
38616;BME280;24370;51.986;4.666;2023-02-13T05:23:44;103725.53;;;15.36;45.25
38616;BME280;24370;51.986;4.666;2023-02-13T05:26:10;103732.78;;;15.50;45.09
38616;BME280;24370;51.986;4.666;2023-02-13T05:28:35;103728.09;;;15.87;44.25
38616;BME280;24370;51.986;4.666;2023-02-13T05:31:19;103730.03;;;15.42;45.15
38616;BME280;24370;51.986;4.666;2023-02-13T05:33:45;103731.53;;;15.83;44.57
38616;BME280;24370;51.986;4.666;2023-02-13T05:36:10;103732.13;;;15.09;45.62
38616;BME280;24370;51.986;4.666;2023-02-13T05:38:35;103731.22;;;15.64;45.05
38616;BME280;24370;51.986;4.666;2023-02-13T05:41:01;103725.25;;;15.74;44.58
38616;BME280;24370;51.986;4.666;2023-02-13T05:43:27;103727.78;;;15.68;45.09
38616;BME280;24370;51.986;4.666;2023-02-13T05:46:03;103730.56;;;15.79;44.61
38616;BME280;24370;51.986;4.666;2023-02-13T05:48:29;103735.56;;;16.22;43.44
38616;BME280;24370;51.986;4.666;2023-02-13T05:50:55;103731.66;;;15.92;44.49
38616;BME280;24370;51.986;4.666;2023-02-13T05:53:20;103732.56;;;15.92;44.36
38616;BME280;24370;51.986;4.666;2023-02-13T05:55:45;103741.19;;;15.25;45.58
38616;BME280;24370;51.986;4.666;2023-02-13T05:58:11;103740.19;;;15.19;46.40
38616;BME280;24370;51.986;4.666;2023-02-13T06:00:36;103745.53;;;15.78;44.51
38616;BME280;24370;51.986;4.666;2023-02-13T06:03:02;103741.69;;;15.58;44.59
38616;BME280;24370;51.986;4.666;2023-02-13T06:05:27;103737.13;;;15.48;45.53
38616;BME280;24370;51.986;4.666;2023-02-13T06:07:52;103743.53;;;15.62;45.45
38616;BME280;24370;51.986;4.666;2023-02-13T06:10:18;103739.53;;;15.32;45.76
38616;BME280;24370;51.986;4.666;2023-02-13T06:12:43;103739.38;;;15.23;45.65
38616;BME280;24370;51.986;4.666;2023-02-13T06:15:09;103739.88;;;15.54;45.01
38616;BME280;24370;51.986;4.666;2023-02-13T06:17:34;103739.75;;;16.06;44.16
38616;BME280;24370;51.986;4.666;2023-02-13T06:19:59;103736.13;;;15.98;44.44
38616;BME280;24370;51.986;4.666;2023-02-13T06:22:25;103735.50;;;16.17;44.29
38616;BME280;24370;51.986;4.666;2023-02-13T06:24:50;103729.91;;;15.91;44.29
38616;BME280;24370;51.986;4.666;2023-02-13T06:27:15;103731.66;;;15.93;44.66
38616;BME280;24370;51.986;4.666;2023-02-13T06:29:41;103734.22;;;15.29;45.75
38616;BME280;24370;51.986;4.666;2023-02-13T06:32:06;103724.56;;;15.31;45.78
38616;BME280;24370;51.986;4.666;2023-02-13T06:34:32;103722.91;;;15.96;44.46
38616;BME280;24370;51.986;4.666;2023-02-13T06:36:57;103724.34;;;15.75;44.50
38616;BME280;24370;51.986;4.666;2023-02-13T06:39:22;103723.88;;;16.03;44.18
38616;BME280;24370;51.986;4.666;2023-02-13T06:41:48;103722.59;;;15.74;44.66
38616;BME280;24370;51.986;4.666;2023-02-13T06:44:13;103730.13;;;16.09;43.74
38616;BME280;24370;51.986;4.666;2023-02-13T06:46:38;103726.94;;;15.71;44.99
38616;BME280;24370;51.986;4.666;2023-02-13T06:49:04;103726.28;;;15.83;44.59
38616;BME280;24370;51.986;4.666;2023-02-13T06:51:29;103731.53;;;15.83;44.96
38616;BME280;24370;51.986;4.666;2023-02-13T06:53:55;103727.28;;;15.94;44.63
38616;BME280;24370;51.986;4.666;2023-02-13T06:56:20;103730.97;;;15.46;45.26
38616;BME280;24370;51.986;4.666;2023-02-13T06:58:45;103734.53;;;15.51;45.64
38616;BME280;24370;51.986;4.666;2023-02-13T07:01:11;103736.06;;;15.35;45.42
38616;BME280;24370;51.986;4.666;2023-02-13T07:03:36;103742.53;;;15.55;45.26
38616;BME280;24370;51.986;4.666;2023-02-13T07:06:02;103748.91;;;15.16;46.36
38616;BME280;24370;51.986;4.666;2023-02-13T07:08:27;103750.31;;;15.48;45.70
38616;BME280;24370;51.986;4.666;2023-02-13T07:10:53;103751.50;;;15.68;44.93
38616;BME280;24370;51.986;4.666;2023-02-13T07:13:19;103758.25;;;15.49;45.40
38616;BME280;24370;51.986;4.666;2023-02-13T07:15:44;103754.63;;;15.44;45.43
38616;BME280;24370;51.986;4.666;2023-02-13T07:18:09;103749.16;;;15.32;45.57
38616;BME280;24370;51.986;4.666;2023-02-13T07:20:35;103755.59;;;15.49;44.65
38616;BME280;24370;51.986;4.666;2023-02-13T07:23:02;103752.94;;;14.94;45.72
38616;BME280;24370;51.986;4.666;2023-02-13T07:25:28;103749.69;;;15.09;45.14
38616;BME280;24370;51.986;4.666;2023-02-13T07:27:54;103758.22;;;14.96;45.51
38616;BME280;24370;51.986;4.666;2023-02-13T07:30:19;103768.53;;;14.40;46.70
38616;BME280;24370;51.986;4.666;2023-02-13T07:32:45;103766.59;;;14.30;46.86
38616;BME280;24370;51.986;4.666;2023-02-13T07:35:10;103757.28;;;14.49;46.68
38616;BME280;24370;51.986;4.666;2023-02-13T07:37:36;103759.09;;;14.50;46.50
38616;BME280;24370;51.986;4.666;2023-02-13T07:40:02;103762.47;;;14.45;46.74
38616;BME280;24370;51.986;4.666;2023-02-13T07:42:31;103764.84;;;13.91;47.80
38616;BME280;24370;51.986;4.666;2023-02-13T07:44:56;103765.91;;;14.40;46.98
38616;BME280;24370;51.986;4.666;2023-02-13T07:47:22;103767.50;;;14.32;47.20
38616;BME280;24370;51.986;4.666;2023-02-13T07:49:48;103770.63;;;14.14;47.26
38616;BME280;24370;51.986;4.666;2023-02-13T07:52:13;103771.16;;;14.40;46.99
38616;BME280;24370;51.986;4.666;2023-02-13T07:54:39;103776.44;;;14.40;47.07
38616;BME280;24370;51.986;4.666;2023-02-13T07:57:14;103775.09;;;14.61;46.90
38616;BME280;24370;51.986;4.666;2023-02-13T07:59:39;103774.97;;;14.55;46.89
38616;BME280;24370;51.986;4.666;2023-02-13T08:02:05;103776.41;;;14.82;46.37
38616;BME280;24370;51.986;4.666;2023-02-13T08:04:33;103789.78;;;14.50;47.09
38616;BME280;24370;51.986;4.666;2023-02-13T08:06:59;103778.13;;;14.80;46.20
38616;BME280;24370;51.986;4.666;2023-02-13T08:09:24;103774.13;;;14.57;47.33
38616;BME280;24370;51.986;4.666;2023-02-13T08:12:08;103773.19;;;14.54;47.24
38616;BME280;24370;51.986;4.666;2023-02-13T08:14:34;103779.47;;;14.59;47.31
38616;BME280;24370;51.986;4.666;2023-02-13T08:17:00;103785.03;;;14.32;47.78
38616;BME280;24370;51.986;4.666;2023-02-13T08:19:26;103787.34;;;14.59;47.36
38616;BME280;24370;51.986;4.666;2023-02-13T08:21:52;103780.91;;;14.89;46.62
38616;BME280;24370;51.986;4.666;2023-02-13T08:24:17;103784.47;;;14.91;46.61
38616;BME280;24370;51.986;4.666;2023-02-13T08:26:43;103783.44;;;14.40;47.64
38616;BME280;24370;51.986;4.666;2023-02-13T08:29:08;103783.25;;;14.73;47.26
38616;BME280;24370;51.986;4.666;2023-02-13T08:31:35;103785.16;;;14.81;47.41
38616;BME280;24370;51.986;4.666;2023-02-13T08:34:01;103781.78;;;14.88;47.31
38616;BME280;24370;51.986;4.666;2023-02-13T08:36:26;103789.09;;;14.60;48.12
38616;BME280;24370;51.986;4.666;2023-02-13T08:38:52;103783.84;;;14.60;48.22
38616;BME280;24370;51.986;4.666;2023-02-13T08:41:18;103793.88;;;14.78;48.21
38616;BME280;24370;51.986;4.666;2023-02-13T08:43:45;103791.22;;;14.76;47.78
38616;BME280;24370;51.986;4.666;2023-02-13T08:46:10;103786.75;;;15.20;47.16
38616;BME280;24370;51.986;4.666;2023-02-13T08:48:35;103791.09;;;14.70;48.44
38616;BME280;24370;51.986;4.666;2023-02-13T08:51:09;103804.78;;;14.54;49.29
38616;BME280;24370;51.986;4.666;2023-02-13T08:53:35;103799.91;;;14.72;48.66
38616;BME280;24370;51.986;4.666;2023-02-13T08:56:00;103788.91;;;14.93;48.67
38616;BME280;24370;51.986;4.666;2023-02-13T08:58:26;103794.66;;;15.20;47.85
38616;BME280;24370;51.986;4.666;2023-02-13T09:00:51;103787.53;;;15.14;47.96
38616;BME280;24370;51.986;4.666;2023-02-13T09:03:17;103795.19;;;15.00;48.49
38616;BME280;24370;51.986;4.666;2023-02-13T09:05:43;103792.00;;;14.72;48.93
38616;BME280;24370;51.986;4.666;2023-02-13T09:08:08;103786.41;;;15.01;48.00
38616;BME280;24370;51.986;4.666;2023-02-13T09:10:36;103798.34;;;14.41;50.18
38616;BME280;24370;51.986;4.666;2023-02-13T09:13:02;103784.53;;;15.44;47.98
38616;BME280;24370;51.986;4.666;2023-02-13T09:15:27;103787.72;;;15.25;48.16
38616;BME280;24370;51.986;4.666;2023-02-13T09:17:53;103788.22;;;15.54;47.41
38616;BME280;24370;51.986;4.666;2023-02-13T09:20:18;103793.41;;;14.99;48.86
38616;BME280;24370;51.986;4.666;2023-02-13T09:22:44;103795.53;;;14.71;49.46
38616;BME280;24370;51.986;4.666;2023-02-13T09:25:09;103789.59;;;15.32;48.65
38616;BME280;24370;51.986;4.666;2023-02-13T09:27:35;103795.06;;;14.08;50.88
38616;BME280;24370;51.986;4.666;2023-02-13T09:30:01;103804.84;;;14.57;51.20
38616;BME280;24370;51.986;4.666;2023-02-13T09:32:27;103796.56;;;14.80;49.56
38616;BME280;24370;51.986;4.666;2023-02-13T09:34:52;103795.50;;;15.19;49.25
38616;BME280;24370;51.986;4.666;2023-02-13T09:37:18;103795.44;;;17.01;45.84
38616;BME280;24370;51.986;4.666;2023-02-13T09:39:44;103794.81;;;17.27;44.75
38616;BME280;24370;51.986;4.666;2023-02-13T09:42:25;103799.66;;;16.87;45.01
38616;BME280;24370;51.986;4.666;2023-02-13T09:44:55;103797.88;;;17.87;43.38
38616;BME280;24370;51.986;4.666;2023-02-13T09:47:36;103797.31;;;17.13;43.75
38616;BME280;24370;51.986;4.666;2023-02-13T09:50:11;103791.22;;;17.19;42.87
38616;BME280;24370;51.986;4.666;2023-02-13T09:52:39;103798.69;;;17.72;42.24
38616;BME280;24370;51.986;4.666;2023-02-13T09:55:16;103791.81;;;17.93;41.91
38616;BME280;24370;51.986;4.666;2023-02-13T09:57:49;103790.75;;;17.72;42.51
38616;BME280;24370;51.986;4.666;2023-02-13T10:00:36;103774.56;;;19.31;39.63
38616;BME280;24370;51.986;4.666;2023-02-13T10:08:57;103775.47;;;19.21;38.76
38616;BME280;24370;51.986;4.666;2023-02-13T10:16:50;103778.06;;;19.73;39.37
38616;BME280;24370;51.986;4.666;2023-02-13T10:19:32;103774.56;;;19.19;39.71
38616;BME280;24370;51.986;4.666;2023-02-13T10:22:06;103783.63;;;17.67;43.16
38616;BME280;24370;51.986;4.666;2023-02-13T10:24:43;103779.63;;;18.29;41.23
38616;BME280;24370;51.986;4.666;2023-02-13T10:29:59;103771.78;;;18.60;40.31
38616;BME280;24370;51.986;4.666;2023-02-13T10:32:38;103770.94;;;18.76;40.71
38616;BME280;24370;51.986;4.666;2023-02-13T10:37:42;103778.34;;;17.63;42.62
38616;BME280;24370;51.986;4.666;2023-02-13T10:40:10;103777.91;;;18.40;41.68
38616;BME280;24370;51.986;4.666;2023-02-13T10:50:43;103773.31;;;18.02;41.35
38616;BME280;24370;51.986;4.666;2023-02-13T10:59:20;103774.81;;;17.63;43.54
38616;BME280;24370;51.986;4.666;2023-02-13T11:01:55;103771.06;;;17.32;44.07
38616;BME280;24370;51.986;4.666;2023-02-13T11:04:22;103767.31;;;18.40;42.38
38616;BME280;24370;51.986;4.666;2023-02-13T11:07:02;103765.72;;;19.20;40.50
38616;BME280;24370;51.986;4.666;2023-02-13T11:09:30;103759.53;;;19.30;40.46
38616;BME280;24370;51.986;4.666;2023-02-13T11:11:58;103767.47;;;19.19;40.14
38616;BME280;24370;51.986;4.666;2023-02-13T11:14:25;103769.22;;;19.76;39.08
38616;BME280;24370;51.986;4.666;2023-02-13T11:17:00;103763.00;;;18.81;40.67
38616;BME280;24370;51.986;4.666;2023-02-13T11:22:05;103746.16;;;18.46;41.42
38616;BME280;24370;51.986;4.666;2023-02-13T11:24:33;103744.41;;;18.55;41.00
38616;BME280;24370;51.986;4.666;2023-02-13T11:27:06;103741.84;;;19.33;40.61
38616;BME280;24370;51.986;4.666;2023-02-13T11:29:35;103733.84;;;19.69;39.31
38616;BME280;24370;51.986;4.666;2023-02-13T11:32:16;103724.84;;;20.16;39.11
38616;BME280;24370;51.986;4.666;2023-02-13T11:34:42;103728.59;;;19.07;40.00
38616;BME280;24370;51.986;4.666;2023-02-13T11:39:36;103721.53;;;18.95;40.34
38616;BME280;24370;51.986;4.666;2023-02-13T11:42:01;103709.06;;;19.64;40.12
38616;BME280;24370;51.986;4.666;2023-02-13T11:44:31;103714.47;;;19.24;39.78
38616;BME280;24370;51.986;4.666;2023-02-13T11:46:58;103706.50;;;19.38;39.38
38616;BME280;24370;51.986;4.666;2023-02-13T11:49:35;103708.25;;;18.81;40.15
38616;BME280;24370;51.986;4.666;2023-02-13T11:52:03;103704.50;;;20.15;38.15
38616;BME280;24370;51.986;4.666;2023-02-13T11:54:33;103709.06;;;19.73;39.00
38616;BME280;24370;51.986;4.666;2023-02-13T11:59:42;103716.19;;;19.34;39.90
38616;BME280;24370;51.986;4.666;2023-02-13T12:02:19;103705.03;;;20.76;37.42
38616;BME280;24370;51.986;4.666;2023-02-13T12:04:47;103710.91;;;19.40;38.71
38616;BME280;24370;51.986;4.666;2023-02-13T12:07:25;103700.78;;;20.43;37.35
38616;BME280;24370;51.986;4.666;2023-02-13T12:12:41;103701.09;;;19.75;38.24
38616;BME280;24370;51.986;4.666;2023-02-13T12:15:17;103702.09;;;19.29;39.47
38616;BME280;24370;51.986;4.666;2023-02-13T12:17:45;103696.69;;;19.72;38.84
38616;BME280;24370;51.986;4.666;2023-02-13T12:20:13;103700.91;;;20.26;37.66
38616;BME280;24370;51.986;4.666;2023-02-13T12:22:43;103698.16;;;20.44;37.08
38616;BME280;24370;51.986;4.666;2023-02-13T12:34:28;103679.47;;;20.54;37.15
38616;BME280;24370;51.986;4.666;2023-02-13T12:39:38;103667.06;;;20.57;37.57
38616;BME280;24370;51.986;4.666;2023-02-13T12:47:25;103673.66;;;19.90;38.26
38616;BME280;24370;51.986;4.666;2023-02-13T12:50:19;103669.19;;;19.99;38.19
38616;BME280;24370;51.986;4.666;2023-02-13T12:52:51;103664.91;;;19.40;39.49
38616;BME280;24370;51.986;4.666;2023-02-13T13:01:35;103655.88;;;20.07;38.65
38616;BME280;24370;51.986;4.666;2023-02-13T13:15:13;103654.34;;;19.41;38.88
38616;BME280;24370;51.986;4.666;2023-02-13T13:23:10;103652.59;;;18.69;40.32
38616;BME280;24370;51.986;4.666;2023-02-13T13:26:26;103654.38;;;18.79;40.48
38616;BME280;24370;51.986;4.666;2023-02-13T13:28:48;103642.88;;;18.85;40.07
38616;BME280;24370;51.986;4.666;2023-02-13T13:31:15;103641.97;;;18.41;40.32
38616;BME280;24370;51.986;4.666;2023-02-13T13:33:43;103635.72;;;19.47;39.06
38616;BME280;24370;51.986;4.666;2023-02-13T13:36:33;103645.53;;;19.14;38.88
38616;BME280;24370;51.986;4.666;2023-02-13T13:50:16;103627.84;;;18.52;40.68
38616;BME280;24370;51.986;4.666;2023-02-13T13:53:06;103622.53;;;18.21;40.81
38616;BME280;24370;51.986;4.666;2023-02-13T13:58:40;103619.03;;;18.42;41.22
38616;BME280;24370;51.986;4.666;2023-02-13T14:03:46;103611.75;;;17.74;42.41
38616;BME280;24370;51.986;4.666;2023-02-13T14:06:16;103608.41;;;18.82;39.35
38616;BME280;24370;51.986;4.666;2023-02-13T14:11:43;103599.59;;;18.60;40.72
38616;BME280;24370;51.986;4.666;2023-02-13T14:16:51;103596.97;;;18.58;40.98
38616;BME280;24370;51.986;4.666;2023-02-13T14:19:38;103603.16;;;18.62;41.12
38616;BME280;24370;51.986;4.666;2023-02-13T14:24:50;103594.31;;;18.41;40.73
38616;BME280;24370;51.986;4.666;2023-02-13T14:27:21;103596.97;;;18.41;41.43
38616;BME280;24370;51.986;4.666;2023-02-13T14:29:47;103595.22;;;18.60;41.19
38616;BME280;24370;51.986;4.666;2023-02-13T14:32:32;103591.69;;;18.88;40.42
38616;BME280;24370;51.986;4.666;2023-02-13T14:37:50;103586.34;;;18.71;40.71
38616;BME280;24370;51.986;4.666;2023-02-13T14:42:45;103588.13;;;18.30;41.44
38616;BME280;24370;51.986;4.666;2023-02-13T14:45:24;103599.63;;;18.78;40.98
38616;BME280;24370;51.986;4.666;2023-02-13T14:47:53;103592.53;;;18.22;41.15
38616;BME280;24370;51.986;4.666;2023-02-13T14:50:39;103595.19;;;18.91;40.04
38616;BME280;24370;51.986;4.666;2023-02-13T14:53:19;103580.81;;;19.70;38.64
38616;BME280;24370;51.986;4.666;2023-02-13T14:55:48;103587.25;;;19.08;40.05
38616;BME280;24370;51.986;4.666;2023-02-13T14:58:35;103587.22;;;18.16;40.60
38616;BME280;24370;51.986;4.666;2023-02-13T15:01:17;103590.78;;;18.36;40.88
38616;BME280;24370;51.986;4.666;2023-02-13T15:03:47;103593.41;;;19.18;39.57
38616;BME280;24370;51.986;4.666;2023-02-13T15:06:34;103588.72;;;19.83;38.46
38616;BME280;24370;51.986;4.666;2023-02-13T15:09:13;103588.09;;;18.08;41.72
38616;BME280;24370;51.986;4.666;2023-02-13T15:11:41;103581.94;;;18.31;40.98
38616;BME280;24370;51.986;4.666;2023-02-13T15:14:29;103569.38;;;19.60;38.60
38616;BME280;24370;51.986;4.666;2023-02-13T15:17:18;103572.81;;;19.83;38.49
38616;BME280;24370;51.986;4.666;2023-02-13T15:19:47;103573.03;;;19.28;39.40
38616;BME280;24370;51.986;4.666;2023-02-13T15:22:19;103581.06;;;18.69;40.45
38616;BME280;24370;51.986;4.666;2023-02-13T15:24:46;103570.47;;;19.02;39.65
38616;BME280;24370;51.986;4.666;2023-02-13T15:27:23;103565.91;;;19.42;39.24